Zephyr Cove, Nevada
Current Conditions -  °F | °C
As of 10:53 AM on Friday 24 Oct 2014 (Local Time) from KTVL Reporting Station
Clear Clear  
Wind Chill: 67°   Ceiling: Unl
Heat Index: 67°   Visibility: 10mi
Dew Point: 21°   Wind: 16mph
Humidity: 17%   Direction: 190°S
Pressure: 30.14"   Gusts: 29mph
Location:  39°N, 119.96°W
Report Text: KTVL 241753Z AUTO 19014G25KT 10SM CLR 19/M06 A3014 RMK AO2 PK WND 20029/1715 SLP164 T01941061 10194 21011 58000
Loading
Personal Weather Stations






























Interactive Weather Map
Tropical Storm Tracking
New forecast layout! Learn more

10-Day Weather Forecast

Advertisements
Track Severe Weather on mobile